createdAt,value
2019-03-24T00:00:33.777Z,35.93
2019-03-24T00:03:01.378Z,34.57
2019-03-24T00:05:28.961Z,34.13
2019-03-24T00:07:56.956Z,34.77
2019-03-24T00:10:24.191Z,34.23
2019-03-24T00:12:51.774Z,36.77
2019-03-24T00:15:26.297Z,36.93
2019-03-24T00:17:46.985Z,35.57
2019-03-24T00:20:14.560Z,37.07
2019-03-24T00:22:42.180Z,35.90
2019-03-24T00:25:10.529Z,36.00
2019-03-24T00:27:38.111Z,35.57
2019-03-24T00:30:09.523Z,37.97
2019-03-24T00:32:37.117Z,35.20
2019-03-24T00:35:04.699Z,37.03
2019-03-24T00:37:33.092Z,36.17
2019-03-24T00:40:00.679Z,36.03
2019-03-24T00:42:28.260Z,35.50
2019-03-24T00:44:55.885Z,36.47
2019-03-24T00:47:23.476Z,38.00
2019-03-24T00:49:51.062Z,37.27
2019-03-24T00:52:18.675Z,38.90
2019-03-24T00:54:46.264Z,37.80
2019-03-24T00:57:13.868Z,38.57
2019-03-24T00:59:42.250Z,40.07
2019-03-24T01:02:10.607Z,39.50
2019-03-24T01:04:38.190Z,39.47
2019-03-24T01:07:06.576Z,38.30
2019-03-24T01:09:34.935Z,38.77
2019-03-24T01:12:02.523Z,38.57
2019-03-24T01:14:30.163Z,38.63
2019-03-24T01:16:57.731Z,37.73
2019-03-24T01:19:26.088Z,35.83
2019-03-24T01:21:53.704Z,36.67
2019-03-24T01:24:21.289Z,35.37
2019-03-24T01:26:49.158Z,37.40
2019-03-24T01:29:16.800Z,35.90
2019-03-24T01:31:44.396Z,34.83
2019-03-24T01:34:11.992Z,34.33
2019-03-24T01:36:40.380Z,46.20
2019-03-24T01:39:08.730Z,38.60
2019-03-24T01:41:36.318Z,36.13
2019-03-24T01:44:05.165Z,46.97
2019-03-24T01:46:32.752Z,38.03
2019-03-24T01:49:00.349Z,49.20
2019-03-24T01:51:27.988Z,51.33
2019-03-24T01:53:56.337Z,40.93
2019-03-24T01:56:23.927Z,41.27
2019-03-24T01:58:52.309Z,36.90
2019-03-24T02:01:19.923Z,37.30
2019-03-24T02:03:47.505Z,36.03
2019-03-24T02:06:15.125Z,36.00
2019-03-24T02:08:42.704Z,35.40
2019-03-24T02:11:10.291Z,37.33
2019-03-24T02:13:38.371Z,34.73
2019-03-24T02:16:09.641Z,34.50
2019-03-24T02:18:34.324Z,34.10
2019-03-24T02:21:01.942Z,35.83
2019-03-24T02:23:29.530Z,34.83
2019-03-24T02:25:57.108Z,34.50
2019-03-24T02:28:24.732Z,46.75
2019-03-24T02:30:52.318Z,37.00
2019-03-24T02:33:20.271Z,36.90
2019-03-24T02:35:47.934Z,34.07
2019-03-24T02:38:15.486Z,35.07
2019-03-24T02:40:43.067Z,33.50
2019-03-24T02:43:10.686Z,33.73
2019-03-24T02:45:38.333Z,44.27
2019-03-24T02:48:05.911Z,34.50
2019-03-24T02:50:33.551Z,34.93
2019-03-24T02:53:01.489Z,35.30
2019-03-24T02:55:29.059Z,32.97
2019-03-24T02:57:56.721Z,32.60
2019-03-24T03:00:24.565Z,44.33
2019-03-24T03:02:52.157Z,49.30
2019-03-24T03:05:19.793Z,37.40
2019-03-24T03:07:47.381Z,37.67
2019-03-24T03:10:14.966Z,36.63
2019-03-24T03:12:43.347Z,37.33
2019-03-24T03:15:11.702Z,36.73
2019-03-24T03:17:39.295Z,37.53
2019-03-24T03:20:06.924Z,37.60
2019-03-24T03:22:34.513Z,37.13
2019-03-24T03:25:02.871Z,37.17
2019-03-24T03:27:30.498Z,37.10
2019-03-24T03:29:58.089Z,39.07
2019-03-24T03:32:25.670Z,37.30
2019-03-24T03:34:54.056Z,37.97
2019-03-24T03:37:22.407Z,35.50
2019-03-24T03:39:50.004Z,35.03
2019-03-24T03:42:17.663Z,36.33
2019-03-24T03:44:46.015Z,35.23
2019-03-24T03:47:13.597Z,33.73
2019-03-24T03:49:41.214Z,37.60
2019-03-24T03:52:08.796Z,34.97
2019-03-24T03:54:36.379Z,36.50
2019-03-24T03:57:04.769Z,35.63
2019-03-24T03:59:33.186Z,35.03
2019-03-24T04:02:00.729Z,36.10
2019-03-24T04:04:29.480Z,37.47
2019-03-24T04:06:57.057Z,37.30
2019-03-24T04:09:25.414Z,38.10
2019-03-24T04:11:53.035Z,37.37
2019-03-24T04:14:20.623Z,50.67
2019-03-24T04:16:48.219Z,39.60
2019-03-24T04:19:15.838Z,37.93
2019-03-24T04:21:43.417Z,35.13
2019-03-24T04:24:11.010Z,36.17
2019-03-24T04:26:39.842Z,34.87
2019-03-24T04:29:07.844Z,34.33
2019-03-24T04:31:35.407Z,46.63
2019-03-24T04:34:03.025Z,38.83
2019-03-24T04:36:31.384Z,49.33
2019-03-24T04:38:58.976Z,50.90
2019-03-24T04:41:26.593Z,37.53
2019-03-24T04:43:54.944Z,36.30
2019-03-24T04:46:22.558Z,34.90
2019-03-24T04:48:50.221Z,46.67
2019-03-24T04:51:17.799Z,38.90
2019-03-24T04:53:45.385Z,36.73
2019-03-24T04:56:13.008Z,47.97
2019-03-24T04:58:40.593Z,47.58
2019-03-24T05:01:08.179Z,38.37
2019-03-24T05:03:35.802Z,36.07
2019-03-24T05:06:03.396Z,35.00
2019-03-24T05:08:30.960Z,36.90
2019-03-24T05:10:58.920Z,34.93
2019-03-24T05:13:26.504Z,33.87
2019-03-24T05:15:54.097Z,32.50
2019-03-24T05:18:21.728Z,45.27
2019-03-24T05:20:49.318Z,37.07
2019-03-24T05:23:17.680Z,47.47
2019-03-24T05:25:45.307Z,37.73
2019-03-24T05:28:12.943Z,34.43
2019-03-24T05:30:40.485Z,36.30
2019-03-24T05:33:08.906Z,45.60
2019-03-24T05:35:36.499Z,36.33
2019-03-24T05:38:04.092Z,34.73
2019-03-24T05:40:31.715Z,33.80
2019-03-24T05:42:59.303Z,32.93
2019-03-24T05:45:27.650Z,34.00
2019-03-24T05:47:55.344Z,32.30
2019-03-24T05:50:22.941Z,32.70
2019-03-24T05:52:50.525Z,32.93
2019-03-24T05:55:18.173Z,32.77
2019-03-24T05:57:45.761Z,44.03
2019-03-24T06:00:13.345Z,35.60
2019-03-24T06:02:41.052Z,45.20
2019-03-24T06:05:08.637Z,36.37
2019-03-24T06:07:36.225Z,47.83
2019-03-24T06:10:06.922Z,36.50
2019-03-24T06:12:35.875Z,36.53
2019-03-24T06:15:17.863Z,34.03
2019-03-24T06:17:48.164Z,43.75
2019-03-24T06:20:16.716Z,36.67
2019-03-24T06:22:45.999Z,33.90
2019-03-24T06:25:14.142Z,33.17
2019-03-24T06:27:47.238Z,32.53
2019-03-24T06:30:25.348Z,34.00
2019-03-24T06:54:46.058Z,32.57
2019-03-24T06:57:13.646Z,31.30
2019-03-24T06:59:41.238Z,32.37
2019-03-24T07:02:09.628Z,32.87
2019-03-24T07:04:37.228Z,31.77
2019-03-24T07:07:04.820Z,33.13
2019-03-24T07:09:32.443Z,32.53
2019-03-24T07:12:00.262Z,34.97
2019-03-24T07:14:27.627Z,31.70
2019-03-24T07:16:56.356Z,49.33
2019-03-24T07:19:23.958Z,39.57
2019-03-24T07:21:51.541Z,36.73
2019-03-24T07:24:19.943Z,32.90
2019-03-24T07:26:47.534Z,31.73
2019-03-24T07:29:15.138Z,34.67
2019-03-24T07:31:42.992Z,32.00
2019-03-24T07:34:10.594Z,32.97
2019-03-24T07:36:38.808Z,33.23
2019-03-24T07:39:06.488Z,32.83
2019-03-24T07:41:34.077Z,42.13
2019-03-24T07:44:01.661Z,34.37
2019-03-24T07:46:29.273Z,33.73
2019-03-24T07:48:56.857Z,32.17
2019-03-24T07:51:25.207Z,30.93
2019-03-24T07:53:52.939Z,33.10
2019-03-24T07:56:20.528Z,31.60
2019-03-24T07:58:48.107Z,33.60
2019-03-24T08:01:15.723Z,30.87
2019-03-24T08:03:43.320Z,30.03
2019-03-24T08:06:10.918Z,30.83
2019-03-24T08:08:44.276Z,30.77
2019-03-24T08:11:07.365Z,31.00
2019-03-24T08:13:35.726Z,39.85
2019-03-24T08:16:03.908Z,30.77
2019-03-24T08:18:31.524Z,38.15
2019-03-24T08:21:00.952Z,30.17
2019-03-24T08:23:28.579Z,28.03
2019-03-24T08:25:56.163Z,28.40
2019-03-24T08:28:23.750Z,27.10
2019-03-24T08:30:51.844Z,28.63
2019-03-24T08:33:20.200Z,28.17
2019-03-24T08:35:47.782Z,26.47
2019-03-24T08:38:15.419Z,34.75
2019-03-24T08:40:43.004Z,28.47
2019-03-24T08:43:10.646Z,27.20
2019-03-24T08:45:38.278Z,25.93
2019-03-24T08:48:05.872Z,26.60
2019-03-24T08:50:33.461Z,26.57
2019-03-24T08:53:01.865Z,26.67
2019-03-24T08:55:29.529Z,26.70
2019-03-24T08:57:57.110Z,27.00
2019-03-24T09:00:30.582Z,27.73
2019-03-24T09:02:53.073Z,26.53
2019-03-24T09:05:20.659Z,26.03
2019-03-24T09:07:48.297Z,25.13
2019-03-24T09:10:15.891Z,24.73
2019-03-24T09:12:43.511Z,25.57
2019-03-24T09:15:11.157Z,26.27
2019-03-24T09:17:41.120Z,22.40
2019-03-24T09:20:06.392Z,24.33
2019-03-24T09:22:34.768Z,25.63
2019-03-24T09:25:02.360Z,25.00
2019-03-24T09:27:29.985Z,23.57
2019-03-24T09:29:58.018Z,24.93
2019-03-24T09:32:25.611Z,22.90
2019-03-24T09:34:53.206Z,23.33
2019-03-24T09:37:20.847Z,22.33
2019-03-24T09:39:48.420Z,22.37
2019-03-24T09:42:16.019Z,20.83
2019-03-24T09:44:43.659Z,21.87
2019-03-24T09:47:11.574Z,20.80
2019-03-24T09:49:39.932Z,26.37
2019-03-24T09:52:07.576Z,22.90
2019-03-24T09:54:35.173Z,21.20
2019-03-24T09:57:02.790Z,21.03
2019-03-24T10:05:41.434Z,21.93
2019-03-24T10:24:26.730Z,26.27
2019-03-24T10:36:54.049Z,21.53
2019-03-24T10:40:00.182Z,20.83
2019-03-24T10:48:01.930Z,20.77
2019-03-24T10:50:43.091Z,20.43
2019-03-24T10:53:15.521Z,21.43
2019-03-24T10:55:42.141Z,22.23
2019-03-24T11:16:19.663Z,23.00
2019-03-24T11:19:03.734Z,23.87
2019-03-24T11:52:57.553Z,25.43
2019-03-24T11:55:34.517Z,23.10
2019-03-24T11:58:05.905Z,21.77
2019-03-24T12:00:32.986Z,23.17
2019-03-24T12:03:01.061Z,22.80
2019-03-24T12:05:28.620Z,22.63
2019-03-24T12:07:58.309Z,22.50
2019-03-24T12:10:26.977Z,22.27
2019-03-24T12:12:57.182Z,21.53
2019-03-24T12:15:25.156Z,20.03
2019-03-24T12:17:52.611Z,20.50
2019-03-24T12:20:20.207Z,20.83
2019-03-24T12:22:47.870Z,21.50
2019-03-24T12:25:15.560Z,21.20
2019-03-24T12:27:43.184Z,22.53
2019-03-24T12:30:11.137Z,21.83
2019-03-24T12:32:38.708Z,23.13
2019-03-24T12:35:07.151Z,23.57
2019-03-24T12:37:34.818Z,28.08
2019-03-24T12:40:02.426Z,24.00
2019-03-24T12:42:30.012Z,24.17
2019-03-24T12:44:57.669Z,23.50
2019-03-24T12:47:25.262Z,21.40
2019-03-24T12:49:52.853Z,21.23
2019-03-24T12:52:21.259Z,24.50
2019-03-24T12:54:48.882Z,19.63
2019-03-24T12:57:16.446Z,19.03
2019-03-24T12:59:44.429Z,18.83
2019-03-24T13:02:12.034Z,17.33
2019-03-24T13:04:39.643Z,18.13
2019-03-24T13:07:07.337Z,16.63
2019-03-24T13:09:34.939Z,15.97
2019-03-24T13:12:02.588Z,16.00
2019-03-24T13:14:30.836Z,15.93
2019-03-24T13:16:58.033Z,16.83
2019-03-24T13:19:25.650Z,15.93
2019-03-24T13:21:53.331Z,16.43
2019-03-24T13:24:21.327Z,16.93
2019-03-24T13:26:48.970Z,16.20
2019-03-24T13:29:16.604Z,16.77
2019-03-24T13:31:44.207Z,16.20
2019-03-24T13:34:11.795Z,20.17
2019-03-24T13:36:40.360Z,19.03
2019-03-24T13:39:08.013Z,17.37
2019-03-24T13:41:35.603Z,17.17
2019-03-24T13:44:03.393Z,17.27
2019-03-24T13:46:31.003Z,17.93
2019-03-24T13:48:58.723Z,17.30
2019-03-24T13:51:26.370Z,18.13
2019-03-24T13:53:54.070Z,17.73
2019-03-24T13:56:21.718Z,19.20
2019-03-24T13:58:50.312Z,17.13
2019-03-24T14:01:18.081Z,16.60
2019-03-24T14:03:48.130Z,17.47
2019-03-24T14:06:15.721Z,17.43
2019-03-24T14:08:43.315Z,17.30
2019-03-24T14:11:11.002Z,17.63
2019-03-24T14:13:38.729Z,17.63
2019-03-24T14:16:07.123Z,17.20
2019-03-24T14:18:34.792Z,15.60
2019-03-24T14:21:03.558Z,15.60
2019-03-24T14:23:31.204Z,14.17
2019-03-24T14:25:58.850Z,14.33
2019-03-24T14:28:26.541Z,13.63
2019-03-24T14:30:54.346Z,12.97
2019-03-24T14:33:21.880Z,13.53
2019-03-24T14:35:49.917Z,12.57
2019-03-24T14:38:17.498Z,14.20
2019-03-24T14:40:45.095Z,13.53
2019-03-24T14:43:12.752Z,15.37
2019-03-24T14:45:41.149Z,12.63
2019-03-24T14:48:08.740Z,13.70
2019-03-24T14:50:36.843Z,15.00
2019-03-24T14:53:04.473Z,15.10
2019-03-24T14:55:32.081Z,18.20
2019-03-24T14:58:01.369Z,16.10
2019-03-24T15:00:37.618Z,14.80
2019-03-24T15:03:05.252Z,15.40
2019-03-24T15:05:32.878Z,15.40
2019-03-24T15:08:00.474Z,17.30
2019-03-24T15:10:28.123Z,15.50
2019-03-24T15:12:55.725Z,19.27
2019-03-24T15:15:23.381Z,15.90
2019-03-24T15:17:51.829Z,15.53
2019-03-24T15:20:20.246Z,15.13
2019-03-24T15:22:47.847Z,14.53
2019-03-24T15:25:15.496Z,14.50
2019-03-24T15:27:43.122Z,14.37
2019-03-24T15:30:10.699Z,16.90
2019-03-24T15:32:38.392Z,14.87
2019-03-24T15:35:06.022Z,17.35
2019-03-24T15:37:33.680Z,13.37
2019-03-24T15:40:03.066Z,13.67
2019-03-24T15:42:30.651Z,13.47
2019-03-24T15:44:58.369Z,14.20
2019-03-24T15:47:26.055Z,13.40
2019-03-24T15:49:53.628Z,13.30
2019-03-24T15:52:24.051Z,12.63
2019-03-24T15:54:58.832Z,13.30
2019-03-24T15:57:26.518Z,14.27
2019-03-24T15:59:54.116Z,16.60
2019-03-24T16:02:24.968Z,14.00
2019-03-24T16:04:52.524Z,13.07
2019-03-24T16:07:20.121Z,16.40
2019-03-24T16:09:47.863Z,12.80
2019-03-24T16:12:15.476Z,10.53
2019-03-24T16:14:43.485Z,10.43
2019-03-24T16:17:11.502Z,10.67
2019-03-24T16:19:39.102Z,10.20
2019-03-24T16:22:06.835Z,9.50
2019-03-24T16:24:35.163Z,9.53
2019-03-24T16:27:03.513Z,9.23
2019-03-24T16:29:31.110Z,9.60
2019-03-24T16:31:59.365Z,9.77
2019-03-24T16:34:26.959Z,10.00
2019-03-24T16:36:54.547Z,9.33
2019-03-24T16:39:23.464Z,9.13
2019-03-24T16:41:51.055Z,8.90
2019-03-24T16:44:19.941Z,10.07
2019-03-24T16:46:47.718Z,10.30
2019-03-24T16:49:15.483Z,10.27
2019-03-24T16:51:43.993Z,8.87
2019-03-24T16:54:11.709Z,9.27
2019-03-24T16:56:39.296Z,8.60
2019-03-24T16:59:06.884Z,8.60
2019-03-24T17:01:34.532Z,7.90
2019-03-24T17:04:02.134Z,8.10
2019-03-24T17:06:29.721Z,7.30
2019-03-24T17:08:57.459Z,7.50
2019-03-24T17:11:25.059Z,6.90
2019-03-24T17:13:52.642Z,7.50
2019-03-24T17:16:21.390Z,6.87
2019-03-24T17:18:48.975Z,6.53
2019-03-24T17:21:16.570Z,6.90
2019-03-24T17:23:44.248Z,6.73
2019-03-24T17:26:12.605Z,5.87
2019-03-24T17:28:40.204Z,7.03
2019-03-24T17:31:08.237Z,6.20
2019-03-24T17:33:35.819Z,6.00
2019-03-24T17:36:03.800Z,7.03
2019-03-24T17:38:32.229Z,5.93
2019-03-24T17:40:59.823Z,6.57
2019-03-24T17:43:28.077Z,6.10
2019-03-24T17:45:55.852Z,6.03
2019-03-24T17:48:23.448Z,6.50
2019-03-24T17:50:51.796Z,6.30
2019-03-24T17:53:19.447Z,5.90
2019-03-24T17:55:47.031Z,6.10
2019-03-24T17:58:14.613Z,5.90
2019-03-24T18:00:42.353Z,5.67
2019-03-24T18:03:09.939Z,6.47
2019-03-24T18:05:37.535Z,5.67
2019-03-24T18:08:06.063Z,5.80
2019-03-24T18:10:33.646Z,5.60
2019-03-24T18:13:01.253Z,5.87
2019-03-24T18:15:28.883Z,5.60
2019-03-24T18:17:56.480Z,5.77
2019-03-24T18:20:32.716Z,5.33
2019-03-24T18:23:00.302Z,6.97
2019-03-24T18:25:27.887Z,7.85
2019-03-24T18:27:55.646Z,7.00
2019-03-24T18:30:23.249Z,7.73
2019-03-24T18:32:57.780Z,6.43
2019-03-24T18:35:25.601Z,6.93
2019-03-24T18:37:53.195Z,6.90
2019-03-24T18:40:21.550Z,7.47
2019-03-24T18:42:49.185Z,7.03
2019-03-24T18:45:16.775Z,7.80
2019-03-24T18:47:44.360Z,7.40
2019-03-24T18:50:12.758Z,6.43
2019-03-24T18:52:40.351Z,6.80
2019-03-24T18:55:07.940Z,6.47
2019-03-24T18:57:35.564Z,5.83
2019-03-24T19:00:05.628Z,6.32
2019-03-24T19:02:33.204Z,6.27
2019-03-24T19:05:01.607Z,6.03
2019-03-24T19:07:29.242Z,5.33
2019-03-24T19:09:56.792Z,4.77
2019-03-24T19:12:24.448Z,5.20
2019-03-24T19:14:52.360Z,5.90
2019-03-24T19:17:19.939Z,5.90
2019-03-24T19:19:47.604Z,4.90
2019-03-24T19:22:15.181Z,4.90
2019-03-24T19:24:42.763Z,4.63
2019-03-24T19:27:10.443Z,4.53
2019-03-24T19:29:37.985Z,4.33
2019-03-24T19:32:05.568Z,5.20
2019-03-24T19:34:33.198Z,6.10
2019-03-24T19:37:00.789Z,9.43
2019-03-24T19:39:28.375Z,9.37
2019-03-24T19:41:59.139Z,9.57
2019-03-24T19:44:26.731Z,7.70
2019-03-24T19:46:54.303Z,5.73
2019-03-24T19:49:21.935Z,5.70
2019-03-24T19:51:49.514Z,6.20
2019-03-24T19:54:17.094Z,6.50
2019-03-24T19:56:44.767Z,5.73
2019-03-24T19:59:12.342Z,5.60
2019-03-24T20:01:40.696Z,5.33
2019-03-24T20:04:08.348Z,5.03
2019-03-24T20:06:35.929Z,4.93
2019-03-24T20:09:04.340Z,6.20
2019-03-24T20:11:31.962Z,5.30
2019-03-24T20:13:59.539Z,4.87
2019-03-24T20:16:27.884Z,4.87
2019-03-24T20:18:55.509Z,5.67
2019-03-24T20:21:23.096Z,11.02
2019-03-24T20:23:50.674Z,10.60
2019-03-24T20:26:18.317Z,10.70
2019-03-24T20:28:48.998Z,11.60
2019-03-24T20:31:16.583Z,11.53
2019-03-24T20:33:44.232Z,8.63
2019-03-24T20:36:11.901Z,4.83
2019-03-24T20:38:39.549Z,5.50
2019-03-24T20:41:07.754Z,5.37
2019-03-24T20:43:36.162Z,4.80
2019-03-24T20:46:03.735Z,5.57
2019-03-24T20:48:31.507Z,4.63
2019-03-24T20:50:59.046Z,4.90
2019-03-24T20:53:26.645Z,4.50
2019-03-24T20:55:55.613Z,4.20
2019-03-24T20:58:23.195Z,4.73
2019-03-24T21:00:50.796Z,5.17
2019-03-24T21:03:18.477Z,4.60
2019-03-24T21:05:46.102Z,4.43
2019-03-24T21:08:13.697Z,4.10
2019-03-24T21:10:41.331Z,4.23
2019-03-24T21:13:09.670Z,4.40
2019-03-24T21:15:37.258Z,4.07
2019-03-24T21:18:04.906Z,4.43
2019-03-24T21:20:32.497Z,4.23
2019-03-24T21:23:00.849Z,4.17
2019-03-24T21:25:28.509Z,4.67
2019-03-24T21:27:56.104Z,4.53
2019-03-24T21:30:33.479Z,4.70
2019-03-24T21:33:01.180Z,4.37
2019-03-24T21:35:29.532Z,4.57
2019-03-24T21:37:57.932Z,4.20
2019-03-24T21:40:25.585Z,3.97
2019-03-24T21:42:53.941Z,3.70
2019-03-24T21:45:21.523Z,4.10
2019-03-24T21:47:50.849Z,3.30
2019-03-24T21:50:18.448Z,5.07
2019-03-24T21:52:46.032Z,3.77
2019-03-24T21:55:13.741Z,4.30
2019-03-24T21:57:41.315Z,3.60
2019-03-24T22:00:08.893Z,4.47
2019-03-24T22:02:39.152Z,4.20
2019-03-24T22:05:07.512Z,4.13
2019-03-24T22:07:35.106Z,4.13
2019-03-24T22:10:03.875Z,5.30
2019-03-24T22:12:31.460Z,4.50
2019-03-24T22:14:59.042Z,4.73
2019-03-24T22:17:26.742Z,4.33
2019-03-24T22:19:54.322Z,5.00
2019-03-24T22:22:21.910Z,5.27
2019-03-24T22:24:49.568Z,5.43
2019-03-24T22:27:17.924Z,5.33
2019-03-24T22:29:45.520Z,4.87
2019-03-24T22:32:13.223Z,5.60
2019-03-24T22:34:40.918Z,5.20
2019-03-24T22:37:15.749Z,4.53
2019-03-24T22:39:36.161Z,4.27
2019-03-24T22:42:04.530Z,5.13
2019-03-24T22:44:32.893Z,4.60
2019-03-24T22:47:00.580Z,4.97
2019-03-24T22:49:28.985Z,4.80
2019-03-24T22:52:06.762Z,4.10
2019-03-24T22:54:24.258Z,2.83
2019-03-24T22:56:51.925Z,4.30
2019-03-24T22:59:20.213Z,3.80
2019-03-24T23:01:47.832Z,3.33
2019-03-24T23:04:15.412Z,4.00
2019-03-24T23:06:43.022Z,7.00
2019-03-24T23:09:11.397Z,7.50
2019-03-24T23:11:39.746Z,10.27
2019-03-24T23:14:07.323Z,12.33
2019-03-24T23:16:34.954Z,15.18
2019-03-24T23:19:02.538Z,10.50
2019-03-24T23:21:31.619Z,9.50
2019-03-24T23:23:59.242Z,8.68
2019-03-24T23:26:27.141Z,6.35
2019-03-24T23:28:54.716Z,4.10
2019-03-24T23:31:22.412Z,3.87
2019-03-24T23:33:50.761Z,3.40
2019-03-24T23:36:18.343Z,6.10
2019-03-24T23:38:46.045Z,13.03
2019-03-24T23:41:13.626Z,10.57
2019-03-24T23:43:41.218Z,8.77
2019-03-24T23:46:08.919Z,8.60
2019-03-24T23:48:36.505Z,11.03
2019-03-24T23:51:04.094Z,12.67
2019-03-24T23:53:31.791Z,10.73
2019-03-24T23:56:00.144Z,14.27
2019-03-24T23:58:39.912Z,12.23
